Time;durP1;ratioP1;P1;durP2;ratioP2;P2;SDS_P1;SDS_P2;PMS_P1;PMS_P2;Temp;Humidity;BMP_temperature;BMP_pressure;BME280_temperature;BME280_humidity;BME280_pressure;Samples;Min_cycle;Max_cycle;Signal;HPM_P1;HPM_P2
2022/04/17 00:02:23;;;;;;;5.35;3.33;;;8.10;54.90;;;;;;5094163;28;20139;-74
2022/04/17 00:04:49;;;;;;;4.95;2.90;;;8.10;55.10;;;;;;5093722;28;20028;-74
2022/04/17 00:07:15;;;;;;;6.78;3.47;;;8.00;55.30;;;;;;5094041;28;20540;-74
2022/04/17 00:09:41;;;;;;;5.50;3.42;;;8.00;55.30;;;;;;5094396;28;20044;-73
2022/04/17 00:12:07;;;;;;;5.97;2.83;;;8.00;55.20;;;;;;5093703;28;20059;-74
2022/04/17 00:14:32;;;;;;;5.75;3.50;;;8.00;55.00;;;;;;5094267;28;20066;-74
2022/04/17 00:16:58;;;;;;;5.68;3.45;;;7.90;55.30;;;;;;5093654;28;20024;-74
2022/04/17 00:19:24;;;;;;;6.75;3.38;;;7.90;55.40;;;;;;5094203;28;20024;-73
2022/04/17 00:21:49;;;;;;;9.32;3.45;;;7.90;55.60;;;;;;5093164;28;20457;-74
2022/04/17 00:24:16;;;;;;;6.40;3.42;;;7.90;55.80;;;;;;5093848;28;20106;-74
2022/04/17 00:26:42;;;;;;;6.43;3.75;;;7.90;55.80;;;;;;5075832;28;20115;-74
2022/04/17 00:29:07;;;;;;;5.50;3.58;;;7.90;55.80;;;;;;5075268;28;20487;-74
2022/04/17 00:31:33;;;;;;;6.53;3.75;;;7.80;55.90;;;;;;5093581;28;20464;-75
2022/04/17 00:33:59;;;;;;;5.57;3.50;;;7.90;56.10;;;;;;5093272;28;20028;-74
2022/04/17 00:36:24;;;;;;;6.38;3.33;;;7.80;56.10;;;;;;5093534;28;20081;-74
2022/04/17 00:38:50;;;;;;;4.50;3.00;;;7.80;55.90;;;;;;5078574;28;20433;-76
2022/04/17 00:41:16;;;;;;;6.55;3.47;;;7.80;56.00;;;;;;5072530;28;20031;-74
2022/04/17 00:43:46;;;;;;;4.90;3.53;;;7.70;56.10;;;;;;5073153;28;20043;-74
2022/04/17 00:46:12;;;;;;;5.97;3.47;;;7.70;56.30;;;;;;5072826;28;20349;-74
2022/04/17 00:48:37;;;;;;;4.72;3.13;;;7.70;56.40;;;;;;5073380;28;20024;-74
2022/04/17 00:51:04;;;;;;;5.13;3.25;;;7.70;56.40;;;;;;5054657;28;20436;-75
2022/04/17 00:53:30;;;;;;;5.80;3.60;;;7.60;56.60;;;;;;5072935;28;20359;-74
2022/04/17 00:55:56;;;;;;;6.30;3.63;;;7.60;56.80;;;;;;5054613;28;20025;-74
2022/04/17 00:58:23;;;;;;;5.30;3.20;;;7.60;56.50;;;;;;5072962;28;20032;-74
2022/04/17 01:00:49;;;;;;;6.85;3.40;;;7.60;56.70;;;;;;5072747;28;20053;-75
2022/04/17 01:03:17;;;;;;;5.82;3.35;;;7.60;56.60;;;;;;5072145;28;20044;-74
2022/04/17 01:05:46;;;;;;;5.18;3.10;;;7.60;56.80;;;;;;5072997;28;20064;-75
2022/04/17 01:08:13;;;;;;;5.82;3.53;;;7.60;57.00;;;;;;5072394;28;20060;-75
2022/04/17 01:10:39;;;;;;;6.13;3.53;;;7.50;57.10;;;;;;5073001;28;20465;-73
2022/04/17 01:13:08;;;;;;;4.95;3.33;;;7.60;56.90;;;;;;5072170;28;20111;-73
2022/04/17 01:15:37;;;;;;;5.03;3.15;;;7.50;56.90;;;;;;5072448;28;20032;-74
2022/04/17 01:18:03;;;;;;;7.50;3.30;;;7.50;56.70;;;;;;5086781;28;20160;-75
2022/04/17 01:20:29;;;;;;;4.55;3.08;;;7.50;56.90;;;;;;5074976;28;20426;-75
2022/04/17 01:26:56;;;;;;;7.20;3.67;;;7.50;57.00;;;;;;5092357;28;20111;-75
2022/04/17 01:28:26;;;;;;;5.82;3.45;;;7.50;56.90;;;;;;5092985;28;20043;-75
2022/04/17 01:30:55;;;;;;;5.60;3.35;;;7.50;57.20;;;;;;5092914;28;20017;-75
2022/04/17 01:33:21;;;;;;;5.97;3.60;;;7.40;57.20;;;;;;5092685;28;20120;-75
2022/04/17 01:35:47;;;;;;;7.63;3.75;;;7.40;57.20;;;;;;5092610;28;20380;-75
2022/04/17 01:38:14;;;;;;;6.15;3.20;;;7.40;57.30;;;;;;5092195;28;20212;-74
2022/04/17 01:40:39;;;;;;;7.20;3.25;;;7.40;57.40;;;;;;5092373;28;20465;-74
2022/04/17 01:43:11;;;;;;;6.65;3.50;;;7.30;57.30;;;;;;5091992;28;20085;-75
2022/04/17 01:45:37;;;;;;;5.32;3.45;;;7.30;57.30;;;;;;5092508;28;20028;-75
2022/04/17 01:48:04;;;;;;;6.55;3.33;;;7.30;57.50;;;;;;5091956;28;20036;-74
2022/04/17 01:50:30;;;;;;;6.10;3.58;;;7.30;57.70;;;;;;5092531;28;20120;-74
2022/04/17 01:52:59;;;;;;;7.28;3.30;;;7.30;58.50;;;;;;5091671;28;20032;-75
2022/04/17 01:55:25;;;;;;;7.03;3.13;;;7.20;57.80;;;;;;5074115;28;20024;-75
2022/04/17 01:57:51;;;;;;;4.60;3.05;;;7.20;57.70;;;;;;5092308;28;20020;-75
2022/04/17 02:00:17;;;;;;;7.10;3.50;;;7.20;57.90;;;;;;5091230;28;20130;-75
2022/04/17 02:02:43;;;;;;;6.03;3.33;;;7.20;58.10;;;;;;5091970;28;20024;-75
2022/04/17 02:05:09;;;;;;;8.27;3.58;;;7.20;58.10;;;;;;5091689;28;20074;-75
2022/04/17 02:07:36;;;;;;;6.47;3.10;;;7.20;58.70;;;;;;5092286;28;20016;-75
2022/04/17 02:10:04;;;;;;;4.25;2.95;;;7.10;58.00;;;;;;5091678;28;20032;-76
2022/04/17 02:12:29;;;;;;;7.85;3.63;;;7.10;58.00;;;;;;5092228;28;20438;-75
2022/04/17 02:14:56;;;;;;;5.03;3.20;;;7.10;58.40;;;;;;5092344;28;20033;-75
2022/04/17 02:17:21;;;;;;;6.80;3.13;;;7.10;58.70;;;;;;5092046;28;20157;-75
2022/04/17 02:19:47;;;;;;;5.32;3.25;;;7.00;59.00;;;;;;5092090;28;20061;-76
2022/04/17 02:22:13;;;;;;;6.13;3.15;;;7.00;58.80;;;;;;5091493;28;20446;-75
2022/04/17 02:24:38;;;;;;;5.78;3.95;;;7.00;58.90;;;;;;5091931;28;20032;-74
2022/04/17 02:27:04;;;;;;;8.40;3.45;;;7.00;59.10;;;;;;5091164;28;20385;-75
2022/04/17 02:29:30;;;;;;;7.47;3.47;;;7.00;59.10;;;;;;5091931;28;20035;-75
2022/04/17 02:31:56;;;;;;;5.28;3.15;;;7.00;59.50;;;;;;5067247;28;20078;-75
2022/04/17 02:34:21;;;;;;;8.52;3.53;;;6.90;59.10;;;;;;5071391;28;20025;-75
2022/04/17 02:36:47;;;;;;;10.05;3.20;;;6.90;59.00;;;;;;5071465;28;20060;-75
2022/04/17 02:39:12;;;;;;;8.05;3.38;;;6.90;59.10;;;;;;5070994;28;20063;-74
2022/04/17 02:41:38;;;;;;;6.03;3.60;;;6.90;59.30;;;;;;5071915;28;20027;-74
2022/04/17 02:44:05;;;;;;;8.55;3.88;;;6.90;59.50;;;;;;5070657;28;20041;-74
2022/04/17 02:49:15;;;;;;;7.07;3.63;;;6.90;59.60;;;;;;5071079;28;20074;-75
2022/04/17 02:51:41;;;;;;;7.43;3.70;;;6.80;59.70;;;;;;5071589;28;20021;-75
2022/04/17 02:54:06;;;;;;;5.43;3.30;;;6.80;59.90;;;;;;5070932;28;20469;-76
2022/04/17 02:56:32;;;;;;;5.70;3.78;;;6.80;59.70;;;;;;5071427;28;20454;-75
2022/04/17 02:58:57;;;;;;;6.07;3.10;;;6.80;59.80;;;;;;5071476;28;20063;-75
2022/04/17 03:07:10;;;;;;;5.40;3.08;;;6.80;59.90;;;;;;5074768;28;20032;-75
2022/04/17 03:09:37;;;;;;;9.02;3.58;;;6.80;60.10;;;;;;5075329;28;20029;-74
2022/04/17 03:12:03;;;;;;;6.32;3.40;;;6.80;60.30;;;;;;5079963;28;20095;-75
2022/04/17 03:14:28;;;;;;;6.55;3.53;;;6.70;60.30;;;;;;5095218;28;20062;-75
2022/04/17 03:16:54;;;;;;;7.47;3.33;;;6.70;60.50;;;;;;5095462;28;20020;-75
2022/04/17 03:19:19;;;;;;;4.78;3.20;;;6.70;60.50;;;;;;5094887;28;20028;-74
2022/04/17 03:21:45;;;;;;;5.45;3.20;;;6.70;60.40;;;;;;5095464;28;20194;-75
2022/04/17 03:24:12;;;;;;;6.28;3.70;;;6.70;60.50;;;;;;5094401;28;20036;-76
2022/04/17 03:26:41;;;;;;;5.43;3.13;;;6.70;60.70;;;;;;5095226;28;20055;-76
2022/04/17 03:29:07;;;;;;;7.07;3.60;;;6.70;60.90;;;;;;5094511;28;20441;-75
2022/04/17 03:31:32;;;;;;;6.72;3.50;;;6.70;60.90;;;;;;5094942;28;20389;-75
2022/04/17 03:33:58;;;;;;;4.93;3.30;;;6.60;60.80;;;;;;5095110;28;20031;-75
2022/04/17 03:36:24;;;;;;;6.20;3.53;;;6.60;60.90;;;;;;5094473;28;20035;-75
2022/04/17 03:38:49;;;;;;;7.25;3.78;;;6.60;60.90;;;;;;5095039;28;20497;-75
2022/04/17 03:41:15;;;;;;;5.10;3.72;;;6.60;61.00;;;;;;5094414;28;20020;-76
2022/04/17 03:43:42;;;;;;;5.88;3.83;;;6.60;61.00;;;;;;5094817;28;20449;-75
2022/04/17 03:46:07;;;;;;;5.53;3.47;;;6.60;61.40;;;;;;5094258;28;20027;-75
2022/04/17 03:48:33;;;;;;;4.85;3.38;;;6.60;61.50;;;;;;5076519;28;20032;-75
2022/04/17 03:50:59;;;;;;;6.95;3.75;;;6.50;61.50;;;;;;5094476;28;20036;-75
2022/04/17 03:53:24;;;;;;;5.97;3.58;;;6.50;61.60;;;;;;5094297;28;20074;-75
2022/04/17 03:55:50;;;;;;;7.57;3.47;;;6.50;62.10;;;;;;5094659;28;20028;-74
2022/04/17 03:58:15;;;;;;;5.07;3.45;;;6.40;62.10;;;;;;5094113;28;20031;-75
2022/04/17 04:00:41;;;;;;;5.28;3.40;;;6.40;62.20;;;;;;5094815;28;20369;-75
2022/04/17 04:03:07;;;;;;;5.57;3.35;;;6.40;62.50;;;;;;5093755;28;20074;-75
2022/04/17 04:05:32;;;;;;;6.88;3.88;;;6.40;62.60;;;;;;5094525;28;20118;-75
2022/04/17 04:07:58;;;;;;;5.78;3.75;;;6.40;62.80;;;;;;5094458;28;20350;-75
2022/04/17 04:10:23;;;;;;;6.97;3.65;;;6.40;62.90;;;;;;5093897;28;20232;-76
2022/04/17 04:12:49;;;;;;;6.68;3.53;;;6.40;62.80;;;;;;5094302;28;20024;-76
2022/04/17 04:15:15;;;;;;;5.60;3.47;;;6.40;62.70;;;;;;5092245;28;20366;-76
2022/04/17 04:17:40;;;;;;;8.32;3.72;;;6.40;62.70;;;;;;5094328;28;20024;-76
2022/04/17 04:20:07;;;;;;;5.57;3.40;;;6.40;63.20;;;;;;5075592;28;20487;-77
2022/04/17 04:22:33;;;;;;;8.05;3.80;;;6.40;63.20;;;;;;5094307;28;20058;-75
2022/04/17 04:24:58;;;;;;;6.30;3.90;;;6.40;63.10;;;;;;5094105;28;20068;-75
2022/04/17 04:30:09;;;;;;;6.38;4.05;;;6.30;63.60;;;;;;5093244;28;20050;-76
2022/04/17 04:32:35;;;;;;;5.65;3.67;;;6.30;63.70;;;;;;5094030;28;20024;-76
2022/04/17 04:35:00;;;;;;;6.00;3.78;;;6.30;64.20;;;;;;5093652;28;20039;-75
2022/04/17 04:37:26;;;;;;;6.72;4.10;;;6.20;64.40;;;;;;5093349;28;20750;-75
2022/04/17 04:39:52;;;;;;;9.52;4.22;;;6.20;64.60;;;;;;5093865;28;20024;-75
2022/04/17 04:42:19;;;;;;;8.02;4.10;;;6.20;64.70;;;;;;5087285;28;20013;-75
2022/04/17 04:44:47;;;;;;;6.63;4.07;;;6.20;64.80;;;;;;5073419;28;20029;-75
2022/04/17 04:47:15;;;;;;;5.45;3.65;;;6.30;64.50;;;;;;5072967;28;20063;-75
2022/04/17 04:49:41;;;;;;;8.93;3.85;;;6.30;64.50;;;;;;5073319;28;20035;-75
2022/04/17 04:52:07;;;;;;;5.43;4.00;;;6.40;64.40;;;;;;5073459;28;20346;-75
2022/04/17 04:54:34;;;;;;;6.95;4.20;;;6.40;64.10;;;;;;5073029;28;20107;-75
2022/04/17 04:57:00;;;;;;;8.43;3.88;;;6.40;63.90;;;;;;5073274;28;20108;-75
2022/04/17 04:59:26;;;;;;;6.78;3.60;;;6.50;63.40;;;;;;5072563;28;20120;-75
2022/04/17 05:01:52;;;;;;;7.32;4.45;;;6.50;63.30;;;;;;5072907;28;20051;-75
2022/04/17 05:04:20;;;;;;;5.47;3.80;;;6.50;62.90;;;;;;5072566;28;20039;-75
2022/04/17 05:06:46;;;;;;;6.57;4.07;;;6.60;63.00;;;;;;5073116;28;20028;-75
2022/04/17 05:09:12;;;;;;;5.95;3.97;;;6.60;62.90;;;;;;5072395;28;20405;-74
2022/04/17 05:11:38;;;;;;;6.00;3.58;;;6.60;62.90;;;;;;5072977;28;20025;-74
2022/04/17 05:14:09;;;;;;;5.45;3.83;;;6.70;63.00;;;;;;5072932;28;20028;-74
2022/04/17 05:16:36;;;;;;;7.07;3.95;;;6.70;63.10;;;;;;5072797;28;20149;-75
2022/04/17 05:19:27;;;;;;;9.07;3.72;;;6.80;62.80;;;;;;5072720;28;20036;-75
2022/04/17 05:21:48;;;;;;;6.78;4.10;;;6.80;62.30;;;;;;5089938;28;20495;-75
2022/04/17 05:24:15;;;;;;;4.28;3.40;;;6.80;62.60;;;;;;5092557;28;20453;-75
2022/04/17 05:26:41;;;;;;;8.70;3.97;;;6.80;61.80;;;;;;5092392;28;20154;-75
2022/04/17 05:29:07;;;;;;;6.35;3.60;;;6.90;61.70;;;;;;5092910;28;20103;-74
2022/04/17 05:31:33;;;;;;;4.93;3.50;;;6.90;61.30;;;;;;5092383;28;20023;-75
2022/04/17 05:33:58;;;;;;;6.05;3.58;;;6.90;61.10;;;;;;5092792;28;20035;-75
2022/04/17 05:36:24;;;;;;;6.05;4.00;;;7.00;61.30;;;;;;5092092;28;20118;-75
2022/04/17 05:38:53;;;;;;;5.53;3.97;;;7.00;60.90;;;;;;5092549;28;20024;-75
2022/04/17 05:41:21;;;;;;;7.65;3.95;;;7.10;61.00;;;;;;5091725;28;20474;-74
2022/04/17 05:43:47;;;;;;;8.23;4.15;;;7.10;61.10;;;;;;5092687;28;20039;-76
2022/04/17 05:46:13;;;;;;;7.15;3.95;;;7.10;61.70;;;;;;5091930;28;20081;-76
2022/04/17 05:48:39;;;;;;;5.90;3.70;;;7.10;61.20;;;;;;5092172;28;20024;-74
2022/04/17 05:51:04;;;;;;;5.68;3.75;;;7.20;60.90;;;;;;5073358;28;20371;-76
2022/04/17 05:53:31;;;;;;;6.35;3.60;;;7.20;60.50;;;;;;5091104;28;20024;-74
2022/04/17 05:55:57;;;;;;;9.02;3.80;;;7.30;60.80;;;;;;5091992;28;20453;-75
2022/04/17 05:58:22;;;;;;;4.45;3.65;;;7.50;60.70;;;;;;5091669;28;20031;-75
2022/04/17 06:01:07;;;;;;;5.25;3.58;;;7.70;60.20;;;;;;5091491;28;20485;-74
2022/04/17 06:03:32;;;;;;;7.55;4.00;;;8.00;58.60;;;;;;5086094;28;20036;-75
2022/04/17 06:05:58;;;;;;;5.63;3.47;;;8.30;57.80;;;;;;5092261;28;20404;-75
2022/04/17 06:08:25;;;;;;;10.38;3.80;;;8.60;57.50;;;;;;5091479;28;20048;-75
2022/04/17 06:10:51;;;;;;;6.45;3.42;;;8.90;56.20;;;;;;5091614;28;20395;-74
2022/04/17 06:13:17;;;;;;;8.32;3.30;;;9.30;55.40;;;;;;5063957;28;20127;-75
2022/04/17 06:15:43;;;;;;;5.40;3.58;;;9.50;53.70;;;;;;5087263;28;20027;-75
2022/04/17 06:18:09;;;;;;;7.72;3.05;;;9.80;52.00;;;;;;5071802;28;20033;-74
2022/04/17 06:20:34;;;;;;;5.78;3.38;;;10.20;52.00;;;;;;5071363;28;20063;-75
2022/04/17 06:23:00;;;;;;;9.05;3.47;;;10.40;50.50;;;;;;5071986;28;20449;-75
2022/04/17 06:25:26;;;;;;;4.70;3.03;;;10.60;49.20;;;;;;5070699;28;20082;-75
2022/04/17 06:27:52;;;;;;;7.88;3.70;;;10.80;49.30;;;;;;5071757;28;20086;-75
2022/04/17 06:30:19;;;;;;;5.43;3.58;;;10.90;48.50;;;;;;5071277;28;20025;-74
2022/04/17 06:32:46;;;;;;;5.68;3.47;;;11.10;48.60;;;;;;5071619;28;20036;-75
2022/04/17 06:35:13;;;;;;;6.70;3.90;;;11.30;48.60;;;;;;5071607;28;20031;-75
2022/04/17 06:37:49;;;;;;;6.90;3.30;;;11.50;48.20;;;;;;5052420;28;20040;-76
2022/04/17 06:40:16;;;;;;;6.07;3.60;;;11.70;46.90;;;;;;5053070;28;20064;-78
2022/04/17 06:42:42;;;;;;;7.45;3.70;;;11.90;46.50;;;;;;5053679;28;20036;-75
2022/04/17 06:45:08;;;;;;;6.18;3.20;;;12.10;46.20;;;;;;5071090;28;20086;-74
2022/04/17 06:47:34;;;;;;;5.20;3.05;;;12.30;44.00;;;;;;5073838;28;20033;-75
2022/04/17 06:49:59;;;;;;;8.60;2.85;;;12.50;43.00;;;;;;5071779;28;20028;-75
2022/04/17 06:52:25;;;;;;;6.40;2.80;;;13.00;42.40;;;;;;5070803;28;20028;-75
2022/04/17 06:54:51;;;;;;;5.47;3.40;;;13.60;41.30;;;;;;5054989;28;20442;-75
2022/04/17 06:57:16;;;;;;;5.70;3.25;;;14.40;40.10;;;;;;5090391;28;20020;-75
2022/04/17 06:59:42;;;;;;;5.50;3.22;;;17.10;40.00;;;;;;5090515;28;20029;-75
2022/04/17 07:02:08;;;;;;;4.10;2.72;;;19.60;35.60;;;;;;5091012;28;20017;-75
2022/04/17 07:04:33;;;;;;;5.22;3.10;;;21.30;32.00;;;;;;5090774;28;20032;-76
2022/04/17 07:06:59;;;;;;;5.68;2.95;;;22.10;29.00;;;;;;5091271;28;20028;-76
2022/04/17 07:09:25;;;;;;;4.65;2.97;;;23.10;28.70;;;;;;5090608;28;20024;-75
2022/04/17 07:11:51;;;;;;;6.20;3.00;;;24.30;27.50;;;;;;5091416;28;20027;-75
2022/04/17 07:14:16;;;;;;;6.88;2.63;;;24.90;26.70;;;;;;5090918;28;20071;-77
2022/04/17 07:16:43;;;;;;;4.40;3.00;;;25.20;25.40;;;;;;5091452;28;20516;-75
2022/04/17 07:19:09;;;;;;;5.55;2.65;;;24.90;25.20;;;;;;5091151;28;20024;-75
2022/04/17 07:21:34;;;;;;;4.57;2.50;;;24.80;25.70;;;;;;5071259;28;20108;-76
2022/04/17 07:24:01;;;;;;;5.68;2.75;;;25.60;25.20;;;;;;5071146;28;20024;-75
2022/04/17 07:26:27;;;;;;;7.50;3.30;;;25.60;24.80;;;;;;5070432;28;20115;-75
2022/04/17 07:28:53;;;;;;;2.78;2.20;;;25.00;24.60;;;;;;5084516;28;20419;-75
2022/04/17 07:31:19;;;;;;;4.82;2.53;;;25.10;24.50;;;;;;5090406;28;20035;-74
2022/04/17 07:33:45;;;;;;;3.00;2.55;;;25.20;24.80;;;;;;5091155;28;20086;-75
2022/04/17 07:36:11;;;;;;;4.78;2.67;;;25.90;24.60;;;;;;5091307;28;20063;-75
2022/04/17 07:38:37;;;;;;;3.33;2.53;;;26.00;24.30;;;;;;5090613;28;20067;-76
2022/04/17 07:41:03;;;;;;;3.70;2.63;;;25.70;23.80;;;;;;5091534;28;20358;-75
2022/04/17 07:43:29;;;;;;;4.40;2.40;;;25.00;24.30;;;;;;5090547;28;20059;-75
2022/04/17 07:45:54;;;;;;;5.18;2.60;;;25.90;24.50;;;;;;5091606;28;20155;-74
2022/04/17 07:48:20;;;;;;;3.90;2.30;;;26.30;23.90;;;;;;5090180;28;20024;-74
2022/04/17 07:50:46;;;;;;;4.18;2.58;;;25.90;23.90;;;;;;5093716;28;20024;-75
2022/04/17 07:53:11;;;;;;;4.60;2.65;;;25.80;24.10;;;;;;5093938;28;20024;-75
2022/04/17 07:55:37;;;;;;;3.47;2.13;;;26.50;23.90;;;;;;5094102;28;20073;-75
2022/04/17 08:00:59;;;;;;;5.18;2.55;;;27.40;23.30;;;;;;5094459;28;20148;-75
2022/04/17 08:06:00;;;;;;;4.05;2.28;;;26.90;23.20;;;;;;5094426;28;20111;-75
2022/04/17 08:08:26;;;;;;;4.30;2.38;;;26.80;22.30;;;;;;5075334;28;20032;-74
2022/04/17 08:10:52;;;;;;;4.43;2.33;;;26.60;23.60;;;;;;5094365;28;20028;-74
2022/04/17 08:13:18;;;;;;;3.35;2.40;;;26.70;23.00;;;;;;5094255;28;20024;-74
2022/04/17 08:15:44;;;;;;;6.22;3.00;;;26.30;23.00;;;;;;5093500;28;20035;-74
2022/04/17 08:18:09;;;;;;;3.42;2.30;;;26.40;23.80;;;;;;5090501;28;20035;-75
2022/04/17 08:20:35;;;;;;;5.68;2.33;;;26.20;23.60;;;;;;5085615;28;20039;-75
2022/04/17 08:23:01;;;;;;;3.33;2.20;;;26.10;23.50;;;;;;5093791;28;20020;-75
2022/04/17 08:25:27;;;;;;;2.72;2.00;;;26.20;23.80;;;;;;5090870;28;20366;-74
2022/04/17 08:27:55;;;;;;;3.03;1.88;;;26.10;24.20;;;;;;5101039;28;20016;-75
2022/04/17 08:30:22;;;;;;;2.17;1.60;;;25.60;23.80;;;;;;5093427;28;20038;-77
2022/04/17 08:32:48;;;;;;;4.65;2.10;;;25.10;22.70;;;;;;5098478;28;20023;-75
2022/04/17 08:35:14;;;;;;;6.45;1.83;;;23.80;23.80;;;;;;5102383;28;20047;-75
2022/04/17 08:37:40;;;;;;;2.08;1.55;;;23.10;24.10;;;;;;5092107;28;20400;-74
2022/04/17 08:40:06;;;;;;;3.35;1.85;;;22.00;23.70;;;;;;5083686;28;20046;-75
2022/04/17 08:42:32;;;;;;;2.88;1.88;;;21.30;25.00;;;;;;5072488;28;20025;-75
2022/04/17 08:44:58;;;;;;;5.15;1.90;;;20.60;26.10;;;;;;5077029;28;20032;-75
2022/04/17 08:47:25;;;;;;;6.53;2.10;;;19.90;26.50;;;;;;5083325;28;20044;-75
2022/04/17 08:49:54;;;;;;;3.58;1.90;;;19.50;26.50;;;;;;5088213;28;20032;-75
2022/04/17 08:52:21;;;;;;;5.55;2.15;;;19.20;26.80;;;;;;5074866;28;20055;-75
2022/04/17 08:54:46;;;;;;;3.17;2.20;;;18.90;26.80;;;;;;5074898;28;20032;-75
2022/04/17 08:57:12;;;;;;;3.45;2.08;;;18.60;27.50;;;;;;5091096;28;20111;-75
2022/04/17 08:59:38;;;;;;;3.17;1.88;;;18.10;28.70;;;;;;5096716;28;20126;-74
2022/04/17 09:02:12;;;;;;;4.38;2.10;;;17.80;28.60;;;;;;5090564;28;20043;-73
2022/04/17 09:04:41;;;;;;;3.90;2.10;;;17.50;28.90;;;;;;5092177;28;20036;-75
2022/04/17 09:07:11;;;;;;;3.95;2.20;;;17.40;29.30;;;;;;5092821;28;20028;-75
2022/04/17 09:09:52;;;;;;;5.30;2.33;;;17.30;29.30;;;;;;5091762;28;20480;-75
2022/04/17 09:12:18;;;;;;;;;;;17.20;29.90;;;;;;5075085;28;20039;-75
2022/04/17 09:14:44;;;;;;;4.00;2.20;;;17.10;30.00;;;;;;5091968;28;20002;-75
2022/04/17 09:17:10;;;;;;;4.97;2.25;;;16.90;29.80;;;;;;5092527;28;20044;-74
2022/04/17 09:19:37;;;;;;;3.85;2.10;;;16.70;30.60;;;;;;5089551;28;20031;-74
2022/04/17 09:22:03;;;;;;;10.77;2.30;;;16.70;30.40;;;;;;5091096;28;20120;-74
2022/04/17 09:24:28;;;;;;;3.17;2.00;;;16.60;30.00;;;;;;5091970;28;20070;-76
2022/04/17 09:26:57;;;;;;;5.50;1.90;;;16.60;30.00;;;;;;5092082;28;20055;-74
2022/04/17 09:29:27;;;;;;;3.78;1.80;;;16.60;29.80;;;;;;5092427;28;20027;-74
2022/04/17 09:32:20;;;;;;;3.05;2.00;;;16.50;30.30;;;;;;5092583;28;20020;-75
2022/04/17 09:34:55;;;;;;;2.80;2.10;;;16.30;30.30;;;;;;5069357;28;20519;-75
2022/04/17 09:37:27;;;;;;;3.03;2.10;;;15.90;30.60;;;;;;5092300;28;20051;-74
2022/04/17 09:40:04;;;;;;;3.63;2.15;;;15.90;31.60;;;;;;5092166;28;20095;-74
2022/04/17 09:42:30;;;;;;;3.75;2.30;;;15.70;31.40;;;;;;5091776;28;20097;-75
2022/04/17 09:44:57;;;;;;;3.70;1.80;;;15.60;31.40;;;;;;5091800;28;20060;-74
2022/04/17 09:47:29;;;;;;;3.38;2.13;;;15.60;31.40;;;;;;5092242;28;20555;-75
2022/04/17 09:49:57;;;;;;;2.42;1.92;;;15.60;31.50;;;;;;5092485;28;20028;-74
2022/04/17 09:52:29;;;;;;;5.47;2.65;;;15.50;31.50;;;;;;5092099;28;20024;-74
2022/04/17 09:54:55;;;;;;;5.50;2.10;;;15.50;31.80;;;;;;5073675;28;20466;-74
2022/04/17 09:57:35;;;;;;;4.80;2.28;;;15.30;31.50;;;;;;5092032;28;20106;-75
2022/04/17 10:00:11;;;;;;;2.95;2.05;;;15.40;32.50;;;;;;5091855;28;20086;-75
2022/04/17 10:02:38;;;;;;;3.60;2.10;;;15.50;32.80;;;;;;5091390;28;20028;-74
2022/04/17 10:05:06;;;;;;;3.88;2.47;;;15.50;32.20;;;;;;5091622;28;20040;-74
2022/04/17 10:07:34;;;;;;;4.18;2.33;;;15.50;33.00;;;;;;5090764;28;20028;-75
2022/04/17 10:09:59;;;;;;;5.63;2.30;;;15.50;32.30;;;;;;5091985;28;20062;-74
2022/04/17 10:12:25;;;;;;;4.80;2.20;;;15.50;32.10;;;;;;5073620;28;20059;-74
2022/04/17 10:14:55;;;;;;;2.92;2.20;;;15.30;31.80;;;;;;5091023;28;20110;-74
2022/04/17 10:17:22;;;;;;;6.88;2.55;;;15.20;31.70;;;;;;5091593;28;20381;-74
2022/04/17 10:19:50;;;;;;;5.07;2.20;;;15.20;32.20;;;;;;5087197;28;20028;-74
2022/04/17 10:22:18;;;;;;;6.03;2.85;;;15.20;32.50;;;;;;5071315;28;20442;-75
2022/04/17 10:24:51;;;;;;;4.65;2.58;;;15.30;32.80;;;;;;5052567;28;20032;-74
2022/04/17 10:27:22;;;;;;;3.83;2.28;;;15.40;32.50;;;;;;5071747;28;20031;-74
2022/04/17 10:29:56;;;;;;;4.63;2.47;;;15.20;31.80;;;;;;5071035;28;20247;-73
2022/04/17 10:33:00;;;;;;;6.10;2.63;;;15.20;32.20;;;;;;5070983;28;20036;-74
2022/04/17 10:35:28;;;;;;;4.57;2.30;;;15.20;32.60;;;;;;5052334;28;20052;-74
2022/04/17 10:38:16;;;;;;;4.07;2.17;;;15.20;32.30;;;;;;5071603;28;20408;-74
2022/04/17 10:40:55;;;;;;;3.60;2.22;;;15.20;31.90;;;;;;5088655;28;20030;-76
2022/04/17 10:43:21;;;;;;;4.75;2.63;;;15.20;33.30;;;;;;5091787;28;20464;-75
2022/04/17 10:46:09;;;;;;;4.28;2.08;;;15.20;32.40;;;;;;5082271;28;20024;-75
2022/04/17 10:48:45;;;;;;;3.38;2.03;;;15.40;33.30;;;;;;5070790;28;20443;-74
2022/04/17 10:51:24;;;;;;;4.18;2.45;;;15.50;32.60;;;;;;5053154;28;20429;-74
2022/04/17 10:54:00;;;;;;;3.13;2.20;;;15.50;32.00;;;;;;5070791;28;20043;-73
2022/04/17 10:56:26;;;;;;;3.35;2.28;;;15.50;31.20;;;;;;5053448;28;20048;-74
2022/04/17 10:58:57;;;;;;;3.95;2.17;;;15.40;31.30;;;;;;5052526;28;20474;-74
2022/04/17 11:01:41;;;;;;;4.95;2.10;;;15.30;31.00;;;;;;5071435;28;20049;-74
2022/04/17 11:04:27;;;;;;;3.03;2.08;;;15.30;31.30;;;;;;5071224;28;20070;-74
2022/04/17 11:06:54;;;;;;;4.97;2.05;;;15.20;30.70;;;;;;5070526;28;20037;-74
2022/04/17 11:09:22;;;;;;;3.38;1.85;;;15.20;31.20;;;;;;5071290;28;20025;-74
2022/04/17 11:11:49;;;;;;;2.47;2.00;;;15.10;31.70;;;;;;5070395;28;20123;-74
2022/04/17 11:14:20;;;;;;;3.78;2.25;;;15.00;30.80;;;;;;5053057;28;20416;-74
2022/04/17 11:16:59;;;;;;;3.05;1.83;;;14.90;30.90;;;;;;5068942;28;20036;-74
2022/04/17 11:19:27;;;;;;;3.40;1.88;;;14.60;31.80;;;;;;5071726;28;20378;-75
2022/04/17 11:22:15;;;;;;;4.88;2.63;;;14.70;32.60;;;;;;5070141;28;20066;-75
2022/04/17 11:24:56;;;;;;;2.67;1.73;;;14.70;31.20;;;;;;5071289;28;20028;-74
2022/04/17 11:27:42;;;;;;;5.55;2.40;;;14.70;31.20;;;;;;5056715;28;20028;-75
2022/04/17 11:30:13;;;;;;;2.60;1.58;;;14.70;31.10;;;;;;5074623;28;20198;-74
2022/04/17 11:32:39;;;;;;;3.97;2.20;;;14.80;30.60;;;;;;5073701;28;20028;-76
2022/04/17 11:35:07;;;;;;;5.40;2.13;;;14.70;31.20;;;;;;5056318;28;20040;-75
2022/04/17 11:37:33;;;;;;;3.65;2.30;;;14.60;31.10;;;;;;5073696;28;20462;-77
2022/04/17 11:40:08;;;;;;;5.35;1.77;;;14.50;33.20;;;;;;5074573;28;20055;-74
2022/04/17 11:42:42;;;;;;;3.03;1.73;;;14.50;31.10;;;;;;5073699;28;20039;-73
2022/04/17 11:45:09;;;;;;;4.70;2.28;;;14.30;29.60;;;;;;5074494;28;20028;-73
2022/04/17 11:47:42;;;;;;;3.08;1.77;;;14.20;29.90;;;;;;5073648;28;20032;-75
2022/04/17 11:50:09;;;;;;;2.88;2.10;;;14.20;31.20;;;;;;5074266;28;20487;-74
2022/04/17 11:52:35;;;;;;;3.00;1.75;;;14.30;31.20;;;;;;5073281;28;20366;-75
2022/04/17 11:55:01;;;;;;;4.43;2.30;;;14.30;30.40;;;;;;5073929;28;20075;-74
2022/04/17 11:57:27;;;;;;;2.38;2.15;;;14.30;30.60;;;;;;5074383;28;20029;-74
2022/04/17 11:59:54;;;;;;;2.85;1.90;;;14.20;33.10;;;;;;5073561;28;20054;-74
2022/04/17 12:02:25;;;;;;;4.43;2.00;;;14.20;30.90;;;;;;5074069;28;20420;-74
2022/04/17 12:04:53;;;;;;;3.47;2.42;;;14.10;30.70;;;;;;5073093;28;20043;-73
2022/04/17 12:07:23;;;;;;;5.07;1.88;;;14.10;31.10;;;;;;5086051;28;20496;-74
2022/04/17 12:09:50;;;;;;;4.40;2.13;;;14.10;31.40;;;;;;5094239;28;20024;-74
2022/04/17 12:12:20;;;;;;;3.45;1.83;;;14.00;30.90;;;;;;5094227;28;20085;-73
2022/04/17 12:14:52;;;;;;;3.47;1.80;;;14.00;30.20;;;;;;5093533;28;20020;-74
2022/04/17 12:17:20;;;;;;;3.38;1.92;;;13.90;30.20;;;;;;5093870;28;20052;-75
2022/04/17 12:19:52;;;;;;;5.22;3.17;;;13.80;30.50;;;;;;5089254;28;20055;-74
2022/04/17 12:22:18;;;;;;;4.53;2.10;;;13.80;31.50;;;;;;5073933;28;20025;-73
2022/04/17 12:24:45;;;;;;;4.55;2.30;;;13.80;30.90;;;;;;5072968;28;20031;-74
2022/04/17 12:27:19;;;;;;;4.22;1.98;;;13.80;30.70;;;;;;5073858;28;20054;-74
2022/04/17 12:29:50;;;;;;;2.90;1.95;;;13.80;30.40;;;;;;5059003;28;20016;-73
2022/04/17 12:32:16;;;;;;;;;;;13.80;31.60;;;;;;5094536;28;20028;-73
2022/04/17 12:34:45;;;;;;;4.88;2.20;;;13.80;31.90;;;;;;5093285;28;19995;-74
2022/04/17 12:37:30;;;;;;;4.20;2.28;;;13.80;31.70;;;;;;5092543;28;20070;-75
2022/04/17 12:40:21;;;;;;;4.78;2.17;;;13.80;30.50;;;;;;5093249;28;20024;-74
2022/04/17 12:42:49;;;;;;;4.03;2.40;;;13.80;30.90;;;;;;5092697;28;20465;-73
2022/04/17 12:45:25;;;;;;;6.63;2.47;;;13.80;31.80;;;;;;5093557;28;20032;-73
2022/04/17 12:48:05;;;;;;;4.57;2.10;;;13.70;31.70;;;;;;5092994;28;20032;-74
2022/04/17 12:50:31;;;;;;;3.97;2.10;;;13.70;32.00;;;;;;5093577;28;20020;-74
2022/04/17 12:52:58;;;;;;;4.05;2.00;;;13.70;31.70;;;;;;5089659;28;20439;-73
2022/04/17 12:55:34;;;;;;;3.28;1.90;;;13.70;32.00;;;;;;5083281;28;20063;-73
2022/04/17 12:58:01;;;;;;;3.45;2.17;;;13.70;31.20;;;;;;5093137;28;20058;-73
2022/04/17 13:00:28;;;;;;;2.83;2.03;;;13.70;32.20;;;;;;5092872;28;20044;-74
2022/04/17 13:03:11;;;;;;;3.97;2.20;;;13.60;31.70;;;;;;5092511;28;20028;-75
2022/04/17 13:05:38;;;;;;;2.88;1.98;;;13.60;32.10;;;;;;5093351;28;20101;-72
2022/04/17 13:08:05;;;;;;;4.72;2.40;;;13.60;32.60;;;;;;5092980;28;20083;-72
2022/04/17 13:10:31;;;;;;;3.25;2.10;;;13.60;31.90;;;;;;5092903;28;20377;-74
2022/04/17 13:12:57;;;;;;;3.97;2.28;;;13.60;32.10;;;;;;5092493;28;20028;-74
2022/04/17 13:15:33;;;;;;;2.92;2.15;;;13.50;31.50;;;;;;5095120;28;20036;-74
2022/04/17 13:18:00;;;;;;;4.75;1.90;;;13.50;31.40;;;;;;5075629;28;20634;-72